sensor_id;sensor_type;location;lat;lon;timestamp;pressure;altitude;pressure_sealevel;temperature;humidity
42633;BME280;28261;53.304;-6.284;2023-04-15T00:01:45;100917.06;;;6.80;77.78
42633;BME280;28261;53.304;-6.284;2023-04-15T00:03:51;100923.25;;;6.78;77.76
42633;BME280;28261;53.304;-6.284;2023-04-15T00:05:54;100923.34;;;6.77;77.79
42633;BME280;28261;53.304;-6.284;2023-04-15T00:07:59;100926.03;;;6.75;78.26
42633;BME280;28261;53.304;-6.284;2023-04-15T00:10:03;100927.81;;;6.75;77.84
42633;BME280;28261;53.304;-6.284;2023-04-15T00:12:06;100934.88;;;6.74;77.84
42633;BME280;28261;53.304;-6.284;2023-04-15T00:14:12;100944.56;;;6.74;78.15
42633;BME280;28261;53.304;-6.284;2023-04-15T00:16:15;100948.97;;;6.73;78.48
42633;BME280;28261;53.304;-6.284;2023-04-15T00:18:18;100944.69;;;6.71;78.43
42633;BME280;28261;53.304;-6.284;2023-04-15T00:20:22;100953.47;;;6.71;78.57
42633;BME280;28261;53.304;-6.284;2023-04-15T00:22:26;100951.75;;;6.70;78.60
42633;BME280;28261;53.304;-6.284;2023-04-15T00:24:29;100958.72;;;6.71;78.59
42633;BME280;28261;53.304;-6.284;2023-04-15T00:26:33;100961.44;;;6.70;78.28
42633;BME280;28261;53.304;-6.284;2023-04-15T00:28:37;100960.56;;;6.69;78.44
42633;BME280;28261;53.304;-6.284;2023-04-15T00:30:41;100963.34;;;6.66;78.49
42633;BME280;28261;53.304;-6.284;2023-04-15T00:32:45;100965.16;;;6.66;78.92
42633;BME280;28261;53.304;-6.284;2023-04-15T00:34:54;100977.44;;;6.65;78.80
42633;BME280;28261;53.304;-6.284;2023-04-15T00:36:58;100976.69;;;6.63;78.87
42633;BME280;28261;53.304;-6.284;2023-04-15T00:39:01;100974.13;;;6.62;79.18
42633;BME280;28261;53.304;-6.284;2023-04-15T00:41:06;100974.16;;;6.60;79.51
42633;BME280;28261;53.304;-6.284;2023-04-15T00:43:09;100976.78;;;6.60;79.54
42633;BME280;28261;53.304;-6.284;2023-04-15T00:45:13;100972.53;;;6.57;80.04
42633;BME280;28261;53.304;-6.284;2023-04-15T00:47:18;100981.31;;;6.58;80.14
42633;BME280;28261;53.304;-6.284;2023-04-15T00:49:22;100983.94;;;6.58;80.02
42633;BME280;28261;53.304;-6.284;2023-04-15T00:51:25;100977.78;;;6.57;80.06
42633;BME280;28261;53.304;-6.284;2023-04-15T00:53:29;100979.66;;;6.55;80.13
42633;BME280;28261;53.304;-6.284;2023-04-15T00:55:32;100974.47;;;6.54;80.39
42633;BME280;28261;53.304;-6.284;2023-04-15T00:57:36;100968.31;;;6.53;80.25
42633;BME280;28261;53.304;-6.284;2023-04-15T00:59:39;100964.00;;;6.52;80.34
42633;BME280;28261;53.304;-6.284;2023-04-15T01:01:44;100961.38;;;6.52;80.78
42633;BME280;28261;53.304;-6.284;2023-04-15T01:03:49;100962.28;;;6.51;80.70
42633;BME280;28261;53.304;-6.284;2023-04-15T01:05:52;100972.03;;;6.49;81.56
42633;BME280;28261;53.304;-6.284;2023-04-15T01:07:59;100977.28;;;6.49;81.24
42633;BME280;28261;53.304;-6.284;2023-04-15T01:10:04;100970.41;;;6.47;80.95
42633;BME280;28261;53.304;-6.284;2023-04-15T01:12:09;100975.69;;;6.47;81.04
42633;BME280;28261;53.304;-6.284;2023-04-15T01:14:14;100980.06;;;6.46;81.24
42633;BME280;28261;53.304;-6.284;2023-04-15T01:16:17;100982.72;;;6.46;81.26
42633;BME280;28261;53.304;-6.284;2023-04-15T01:18:21;100985.41;;;6.44;81.22
42633;BME280;28261;53.304;-6.284;2023-04-15T01:20:26;100991.59;;;6.43;81.51
42633;BME280;28261;53.304;-6.284;2023-04-15T01:22:29;100990.75;;;6.43;81.29
42633;BME280;28261;53.304;-6.284;2023-04-15T01:24:34;101000.44;;;6.42;81.39
42633;BME280;28261;53.304;-6.284;2023-04-15T01:26:40;101001.44;;;6.40;81.40
42633;BME280;28261;53.304;-6.284;2023-04-15T01:28:45;101004.97;;;6.39;81.63
42633;BME280;28261;53.304;-6.284;2023-04-15T01:30:48;101001.50;;;6.38;81.51
42633;BME280;28261;53.304;-6.284;2023-04-15T01:32:52;101011.16;;;6.38;81.51
42633;BME280;28261;53.304;-6.284;2023-04-15T01:34:55;101007.75;;;6.36;81.86
42633;BME280;28261;53.304;-6.284;2023-04-15T01:36:58;101011.38;;;6.33;81.89
42633;BME280;28261;53.304;-6.284;2023-04-15T01:39:02;101014.03;;;6.33;81.89
42633;BME280;28261;53.304;-6.284;2023-04-15T01:41:06;101015.84;;;6.31;82.06
42633;BME280;28261;53.304;-6.284;2023-04-15T01:43:11;101011.53;;;6.30;81.97
42633;BME280;28261;53.304;-6.284;2023-04-15T01:45:16;101015.06;;;6.29;82.32
42633;BME280;28261;53.304;-6.284;2023-04-15T01:47:19;101019.47;;;6.29;82.03
42633;BME280;28261;53.304;-6.284;2023-04-15T01:49:23;101022.19;;;6.27;82.31
42633;BME280;28261;53.304;-6.284;2023-04-15T01:51:27;101024.81;;;6.27;82.59
42633;BME280;28261;53.304;-6.284;2023-04-15T01:53:31;101024.03;;;6.25;82.80
42633;BME280;28261;53.304;-6.284;2023-04-15T01:55:36;101031.94;;;6.25;82.96
42633;BME280;28261;53.304;-6.284;2023-04-15T01:57:40;101032.84;;;6.24;82.74
42633;BME280;28261;53.304;-6.284;2023-04-15T01:59:45;101039.03;;;6.23;82.81
42633;BME280;28261;53.304;-6.284;2023-04-15T02:01:49;101037.31;;;6.22;83.11
42633;BME280;28261;53.304;-6.284;2023-04-15T02:03:53;101047.91;;;6.20;83.21
42633;BME280;28261;53.304;-6.284;2023-04-15T02:05:57;101047.91;;;6.20;83.03
42633;BME280;28261;53.304;-6.284;2023-04-15T02:08:02;101050.63;;;6.19;83.26
42633;BME280;28261;53.304;-6.284;2023-04-15T02:10:06;101053.25;;;6.19;83.38
42633;BME280;28261;53.304;-6.284;2023-04-15T02:12:10;101048.91;;;6.18;83.41
42633;BME280;28261;53.304;-6.284;2023-04-15T02:14:13;101045.50;;;6.16;83.66
42633;BME280;28261;53.304;-6.284;2023-04-15T02:16:18;101047.28;;;6.15;83.52
42633;BME280;28261;53.304;-6.284;2023-04-15T02:18:22;101054.31;;;6.15;83.71
42633;BME280;28261;53.304;-6.284;2023-04-15T02:20:25;101054.31;;;6.15;83.74
42633;BME280;28261;53.304;-6.284;2023-04-15T02:22:32;101049.03;;;6.15;83.89
42633;BME280;28261;53.304;-6.284;2023-04-15T02:24:35;101049.03;;;6.15;83.75
42633;BME280;28261;53.304;-6.284;2023-04-15T02:26:38;101055.22;;;6.14;84.32
42633;BME280;28261;53.304;-6.284;2023-04-15T02:28:41;101057.84;;;6.14;83.86
42633;BME280;28261;53.304;-6.284;2023-04-15T02:30:48;101050.03;;;6.12;83.84
42633;BME280;28261;53.304;-6.284;2023-04-15T02:32:55;101054.44;;;6.12;83.80
42633;BME280;28261;53.304;-6.284;2023-04-15T02:35:01;101057.16;;;6.10;84.28
42633;BME280;28261;53.304;-6.284;2023-04-15T02:37:06;101056.28;;;6.09;84.43
42633;BME280;28261;53.304;-6.284;2023-04-15T02:39:10;101049.31;;;6.08;84.58
42633;BME280;28261;53.304;-6.284;2023-04-15T02:41:15;101056.34;;;6.08;84.56
42633;BME280;28261;53.304;-6.284;2023-04-15T02:43:19;101058.97;;;6.08;84.58
42633;BME280;28261;53.304;-6.284;2023-04-15T02:45:24;101059.03;;;6.06;84.51
42633;BME280;28261;53.304;-6.284;2023-04-15T02:47:28;101065.19;;;6.07;84.38
42633;BME280;28261;53.304;-6.284;2023-04-15T02:49:33;101066.09;;;6.06;84.57
42633;BME280;28261;53.304;-6.284;2023-04-15T02:51:37;101066.94;;;6.06;84.59
42633;BME280;28261;53.304;-6.284;2023-04-15T02:53:40;101067.84;;;6.05;84.66
42633;BME280;28261;53.304;-6.284;2023-04-15T02:55:43;101074.13;;;6.03;84.94
42633;BME280;28261;53.304;-6.284;2023-04-15T02:57:47;101073.31;;;6.01;84.61
42633;BME280;28261;53.304;-6.284;2023-04-15T02:59:50;101080.38;;;6.00;85.10
42633;BME280;28261;53.304;-6.284;2023-04-15T03:01:54;101077.75;;;6.00;84.94
42633;BME280;28261;53.304;-6.284;2023-04-15T03:04:01;101082.13;;;6.00;84.97
42633;BME280;28261;53.304;-6.284;2023-04-15T03:06:06;101086.56;;;5.99;85.32
42633;BME280;28261;53.304;-6.284;2023-04-15T03:08:11;101098.88;;;5.97;84.88
42633;BME280;28261;53.304;-6.284;2023-04-15T03:10:15;101100.72;;;5.95;84.93
42633;BME280;28261;53.304;-6.284;2023-04-15T03:12:20;101094.63;;;5.95;86.00
42633;BME280;28261;53.304;-6.284;2023-04-15T03:14:24;101098.16;;;5.93;85.40
42633;BME280;28261;53.304;-6.284;2023-04-15T03:16:28;101098.16;;;5.93;85.34
42633;BME280;28261;53.304;-6.284;2023-04-15T03:18:32;101103.44;;;5.93;85.68
42633;BME280;28261;53.304;-6.284;2023-04-15T03:20:37;101109.66;;;5.91;85.70
42633;BME280;28261;53.304;-6.284;2023-04-15T03:22:42;101114.94;;;5.91;85.92
42633;BME280;28261;53.304;-6.284;2023-04-15T03:24:45;101125.47;;;5.91;86.13
42633;BME280;28261;53.304;-6.284;2023-04-15T03:26:49;101117.56;;;5.91;86.14
42633;BME280;28261;53.304;-6.284;2023-04-15T03:28:52;101128.09;;;5.91;85.78
42633;BME280;28261;53.304;-6.284;2023-04-15T03:30:55;101135.09;;;5.90;86.16
42633;BME280;28261;53.304;-6.284;2023-04-15T03:32:59;101132.59;;;5.87;86.22
42633;BME280;28261;53.304;-6.284;2023-04-15T03:35:03;101135.31;;;5.86;86.33
42633;BME280;28261;53.304;-6.284;2023-04-15T03:37:06;101136.22;;;5.85;86.27
42633;BME280;28261;53.304;-6.284;2023-04-15T03:39:11;101136.22;;;5.85;87.08
42633;BME280;28261;53.304;-6.284;2023-04-15T03:41:15;101143.19;;;5.86;86.16
42633;BME280;28261;53.304;-6.284;2023-04-15T03:43:18;101151.03;;;5.87;86.26
42633;BME280;28261;53.304;-6.284;2023-04-15T03:45:22;101155.50;;;5.85;86.97
42633;BME280;28261;53.304;-6.284;2023-04-15T03:47:25;101150.31;;;5.84;86.41
42633;BME280;28261;53.304;-6.284;2023-04-15T03:49:28;101152.94;;;5.84;87.00
42633;BME280;28261;53.304;-6.284;2023-04-15T03:51:32;101154.78;;;5.82;86.71
42633;BME280;28261;53.304;-6.284;2023-04-15T03:53:35;101155.75;;;5.79;86.88
42633;BME280;28261;53.304;-6.284;2023-04-15T03:55:40;101167.25;;;5.76;86.89
42633;BME280;28261;53.304;-6.284;2023-04-15T03:57:43;101169.94;;;5.75;86.70
42633;BME280;28261;53.304;-6.284;2023-04-15T03:59:47;101173.53;;;5.72;87.04
42633;BME280;28261;53.304;-6.284;2023-04-15T04:01:50;101162.25;;;5.70;87.72
42633;BME280;28261;53.304;-6.284;2023-04-15T04:03:53;101163.16;;;5.69;86.92
42633;BME280;28261;53.304;-6.284;2023-04-15T04:05:57;101166.81;;;5.65;87.41
42633;BME280;28261;53.304;-6.284;2023-04-15T04:08:00;101166.94;;;5.62;86.56
42633;BME280;28261;53.304;-6.284;2023-04-15T04:10:04;101165.22;;;5.61;87.33
42633;BME280;28261;53.304;-6.284;2023-04-15T04:12:09;101167.91;;;5.59;87.17
42633;BME280;28261;53.304;-6.284;2023-04-15T04:14:12;101169.69;;;5.59;86.44
42633;BME280;28261;53.304;-6.284;2023-04-15T04:16:15;101173.34;;;5.55;87.21
42633;BME280;28261;53.304;-6.284;2023-04-15T04:18:19;101174.28;;;5.54;87.44
42633;BME280;28261;53.304;-6.284;2023-04-15T04:20:22;101176.09;;;5.52;87.42
42633;BME280;28261;53.304;-6.284;2023-04-15T04:22:25;101184.13;;;5.49;87.31
42633;BME280;28261;53.304;-6.284;2023-04-15T04:24:29;101190.41;;;5.45;87.31
42633;BME280;28261;53.304;-6.284;2023-04-15T04:26:32;101189.66;;;5.41;87.40
42633;BME280;28261;53.304;-6.284;2023-04-15T04:28:37;101186.31;;;5.37;87.01
42633;BME280;28261;53.304;-6.284;2023-04-15T04:30:41;101185.56;;;5.34;88.14
42633;BME280;28261;53.304;-6.284;2023-04-15T04:32:44;101185.63;;;5.32;88.59
42633;BME280;28261;53.304;-6.284;2023-04-15T04:34:48;101191.00;;;5.29;88.38
42633;BME280;28261;53.304;-6.284;2023-04-15T04:36:51;101192.81;;;5.27;87.68
42633;BME280;28261;53.304;-6.284;2023-04-15T04:38:55;101203.44;;;5.24;88.36
42633;BME280;28261;53.304;-6.284;2023-04-15T04:40:58;101196.47;;;5.23;88.76
42633;BME280;28261;53.304;-6.284;2023-04-15T04:43:01;101203.56;;;5.21;88.75
42633;BME280;28261;53.304;-6.284;2023-04-15T04:45:07;101197.50;;;5.19;88.06
42633;BME280;28261;53.304;-6.284;2023-04-15T04:47:10;101200.38;;;5.13;88.68
42633;BME280;28261;53.304;-6.284;2023-04-15T04:49:14;101204.03;;;5.08;88.87
42633;BME280;28261;53.304;-6.284;2023-04-15T04:51:18;101199.81;;;5.03;88.16
42633;BME280;28261;53.304;-6.284;2023-04-15T04:53:21;101205.31;;;4.97;89.52
42633;BME280;28261;53.304;-6.284;2023-04-15T04:55:24;101212.44;;;4.93;89.34
42633;BME280;28261;53.304;-6.284;2023-04-15T04:57:28;101209.88;;;4.91;89.76
42633;BME280;28261;53.304;-6.284;2023-04-15T04:59:31;101201.22;;;4.88;90.41
42633;BME280;28261;53.304;-6.284;2023-04-15T05:01:36;101207.34;;;4.88;89.66
42633;BME280;28261;53.304;-6.284;2023-04-15T05:03:39;101199.59;;;4.85;90.26
42633;BME280;28261;53.304;-6.284;2023-04-15T05:05:42;101213.69;;;4.83;90.21
42633;BME280;28261;53.304;-6.284;2023-04-15T05:07:46;101219.00;;;4.81;90.33
42633;BME280;28261;53.304;-6.284;2023-04-15T05:09:51;101220.75;;;4.81;89.98
42633;BME280;28261;53.304;-6.284;2023-04-15T05:11:54;101226.91;;;4.80;90.95
42633;BME280;28261;53.304;-6.284;2023-04-15T05:13:58;101231.38;;;4.78;90.98
42633;BME280;28261;53.304;-6.284;2023-04-15T05:16:03;101220.03;;;4.75;91.08
42633;BME280;28261;53.304;-6.284;2023-04-15T05:18:08;101237.53;;;4.77;91.15
42633;BME280;28261;53.304;-6.284;2023-04-15T05:20:12;101238.41;;;4.77;90.38
42633;BME280;28261;53.304;-6.284;2023-04-15T05:22:16;101243.53;;;4.80;89.98
42633;BME280;28261;53.304;-6.284;2023-04-15T05:24:19;101250.53;;;4.81;90.11
42633;BME280;28261;53.304;-6.284;2023-04-15T05:26:23;101258.34;;;4.83;90.31
42633;BME280;28261;53.304;-6.284;2023-04-15T05:28:26;101262.66;;;4.84;90.00
42633;BME280;28261;53.304;-6.284;2023-04-15T05:30:29;101262.66;;;4.84;90.77
42633;BME280;28261;53.304;-6.284;2023-04-15T05:32:32;101257.41;;;4.84;90.50
42633;BME280;28261;53.304;-6.284;2023-04-15T05:34:37;101265.28;;;4.84;90.94
42633;BME280;28261;53.304;-6.284;2023-04-15T05:36:40;101265.34;;;4.82;89.89
42633;BME280;28261;53.304;-6.284;2023-04-15T05:38:44;101264.63;;;4.79;90.66
42633;BME280;28261;53.304;-6.284;2023-04-15T05:40:47;101268.25;;;4.74;90.83
42633;BME280;28261;53.304;-6.284;2023-04-15T05:42:50;101275.31;;;4.72;91.20
42633;BME280;28261;53.304;-6.284;2023-04-15T05:44:54;101278.81;;;4.73;91.15
42633;BME280;28261;53.304;-6.284;2023-04-15T05:46:57;101282.25;;;4.75;90.03
42633;BME280;28261;53.304;-6.284;2023-04-15T05:49:00;101284.75;;;4.78;90.37
42633;BME280;28261;53.304;-6.284;2023-04-15T05:51:05;101291.63;;;4.82;91.14
42633;BME280;28261;53.304;-6.284;2023-04-15T05:53:09;101284.63;;;4.83;90.65
42633;BME280;28261;53.304;-6.284;2023-04-15T05:55:12;101285.41;;;4.85;91.52
42633;BME280;28261;53.304;-6.284;2023-04-15T05:57:16;101292.31;;;4.87;91.45
42633;BME280;28261;53.304;-6.284;2023-04-15T05:59:19;101296.56;;;4.91;90.93
42633;BME280;28261;53.304;-6.284;2023-04-15T06:01:22;101301.69;;;4.96;90.89
42633;BME280;28261;53.304;-6.284;2023-04-15T06:03:26;101304.19;;;4.99;90.32
42633;BME280;28261;53.304;-6.284;2023-04-15T06:05:29;101311.19;;;4.99;90.92
42633;BME280;28261;53.304;-6.284;2023-04-15T06:07:34;101315.59;;;4.98;90.73
42633;BME280;28261;53.304;-6.284;2023-04-15T06:09:37;101319.97;;;4.99;90.46
42633;BME280;28261;53.304;-6.284;2023-04-15T06:11:41;101330.34;;;5.02;90.01
42633;BME280;28261;53.304;-6.284;2023-04-15T06:13:44;101330.25;;;5.05;90.57
42633;BME280;28261;53.304;-6.284;2023-04-15T06:15:48;101333.59;;;5.11;90.38
42633;BME280;28261;53.304;-6.284;2023-04-15T06:17:51;101332.44;;;5.18;90.51
42633;BME280;28261;53.304;-6.284;2023-04-15T06:19:54;101326.94;;;5.25;90.52
42633;BME280;28261;53.304;-6.284;2023-04-15T06:21:58;101335.09;;;5.43;91.09
42633;BME280;28261;53.304;-6.284;2023-04-15T06:24:03;101340.81;;;6.03;89.67
42633;BME280;28261;53.304;-6.284;2023-04-15T06:26:07;101336.00;;;7.02;86.98
42633;BME280;28261;53.304;-6.284;2023-04-15T06:28:10;101337.56;;;8.06;82.11
42633;BME280;28261;53.304;-6.284;2023-04-15T06:30:13;101342.50;;;9.04;77.50
42633;BME280;28261;53.304;-6.284;2023-04-15T06:32:16;101338.00;;;9.91;74.45
42633;BME280;28261;53.304;-6.284;2023-04-15T06:34:20;101339.53;;;10.75;70.86
42633;BME280;28261;53.304;-6.284;2023-04-15T06:36:23;101342.81;;;11.54;68.74
42633;BME280;28261;53.304;-6.284;2023-04-15T06:38:27;101341.19;;;12.23;65.59
42633;BME280;28261;53.304;-6.284;2023-04-15T06:40:31;101337.47;;;12.80;63.56
42633;BME280;28261;53.304;-6.284;2023-04-15T06:42:35;101346.50;;;13.31;62.63
42633;BME280;28261;53.304;-6.284;2023-04-15T06:44:39;101351.22;;;13.66;60.61
42633;BME280;28261;53.304;-6.284;2023-04-15T06:46:42;101349.81;;;13.99;60.18
42633;BME280;28261;53.304;-6.284;2023-04-15T06:48:45;101353.09;;;14.39;59.42
42633;BME280;28261;53.304;-6.284;2023-04-15T06:50:49;101363.91;;;14.86;58.56
42633;BME280;28261;53.304;-6.284;2023-04-15T06:52:53;101363.91;;;15.22;57.11
42633;BME280;28261;53.304;-6.284;2023-04-15T06:54:56;101355.56;;;15.61;55.98
42633;BME280;28261;53.304;-6.284;2023-04-15T06:57:01;101361.69;;;15.85;55.47
42633;BME280;28261;53.304;-6.284;2023-04-15T06:59:04;101359.38;;;16.15;54.55
42633;BME280;28261;53.304;-6.284;2023-04-15T07:01:11;101365.06;;;16.33;53.22
42633;BME280;28261;53.304;-6.284;2023-04-15T07:03:15;101367.94;;;16.41;52.87
42633;BME280;28261;53.304;-6.284;2023-04-15T07:05:18;101365.41;;;16.39;52.76
42633;BME280;28261;53.304;-6.284;2023-04-15T07:07:22;101372.81;;;16.36;52.30
42633;BME280;28261;53.304;-6.284;2023-04-15T07:09:25;101374.91;;;16.32;52.39
42633;BME280;28261;53.304;-6.284;2023-04-15T07:11:28;101385.84;;;16.40;52.31
42633;BME280;28261;53.304;-6.284;2023-04-15T07:13:33;101388.34;;;16.53;51.86
42633;BME280;28261;53.304;-6.284;2023-04-15T07:15:37;101390.91;;;16.55;51.44
42633;BME280;28261;53.304;-6.284;2023-04-15T07:17:42;101394.63;;;16.75;51.06
42633;BME280;28261;53.304;-6.284;2023-04-15T07:19:47;101388.75;;;16.81;50.18
42633;BME280;28261;53.304;-6.284;2023-04-15T07:21:50;101398.50;;;16.94;50.33
42633;BME280;28261;53.304;-6.284;2023-04-15T07:23:54;101404.44;;;16.97;50.43
42633;BME280;28261;53.304;-6.284;2023-04-15T07:25:57;101410.75;;;16.96;49.78
42633;BME280;28261;53.304;-6.284;2023-04-15T07:28:00;101404.44;;;16.97;49.55
42633;BME280;28261;53.304;-6.284;2023-04-15T07:30:06;101406.53;;;17.15;49.19
42633;BME280;28261;53.304;-6.284;2023-04-15T07:32:10;101405.31;;;17.19;49.26
42633;BME280;28261;53.304;-6.284;2023-04-15T07:34:13;101414.84;;;17.12;48.40
42633;BME280;28261;53.304;-6.284;2023-04-15T07:36:17;101410.38;;;17.01;48.77
42633;BME280;28261;53.304;-6.284;2023-04-15T07:38:21;101410.19;;;16.92;48.88
42633;BME280;28261;53.304;-6.284;2023-04-15T07:40:24;101419.00;;;17.04;48.71
42633;BME280;28261;53.304;-6.284;2023-04-15T07:42:28;101424.97;;;17.08;48.26
42633;BME280;28261;53.304;-6.284;2023-04-15T07:44:31;101427.00;;;17.16;48.13
42633;BME280;28261;53.304;-6.284;2023-04-15T07:46:36;101433.06;;;17.18;47.77
42633;BME280;28261;53.304;-6.284;2023-04-15T07:48:39;101431.75;;;17.12;47.44
42633;BME280;28261;53.304;-6.284;2023-04-15T07:50:43;101436.69;;;16.96;47.84
42633;BME280;28261;53.304;-6.284;2023-04-15T07:52:47;101434.03;;;16.84;48.11
42633;BME280;28261;53.304;-6.284;2023-04-15T07:54:51;101440.97;;;16.75;48.05
42633;BME280;28261;53.304;-6.284;2023-04-15T07:56:54;101451.41;;;16.46;49.03
42633;BME280;28261;53.304;-6.284;2023-04-15T07:58:58;101448.63;;;16.02;49.96
42633;BME280;28261;53.304;-6.284;2023-04-15T08:01:03;101456.09;;;15.39;51.78
42633;BME280;28261;53.304;-6.284;2023-04-15T08:03:09;101447.78;;;14.71;53.65
42633;BME280;28261;53.304;-6.284;2023-04-15T08:05:13;101452.69;;;14.01;55.40
42633;BME280;28261;53.304;-6.284;2023-04-15T08:07:16;101456.25;;;13.36;57.60
42633;BME280;28261;53.304;-6.284;2023-04-15T08:09:20;101458.47;;;12.75;59.40
42633;BME280;28261;53.304;-6.284;2023-04-15T08:11:23;101455.78;;;12.33;60.83
42633;BME280;28261;53.304;-6.284;2023-04-15T08:13:27;101463.19;;;11.99;61.42
42633;BME280;28261;53.304;-6.284;2023-04-15T08:15:32;101459.09;;;11.63;62.18
42633;BME280;28261;53.304;-6.284;2023-04-15T08:17:35;101452.00;;;11.33;62.40
42633;BME280;28261;53.304;-6.284;2023-04-15T08:19:40;101455.44;;;11.05;63.06
42633;BME280;28261;53.304;-6.284;2023-04-15T08:21:44;101453.91;;;10.84;63.42
42633;BME280;28261;53.304;-6.284;2023-04-15T08:23:48;101455.53;;;10.71;63.39
42633;BME280;28261;53.304;-6.284;2023-04-15T08:25:53;101457.66;;;10.64;63.77
42633;BME280;28261;53.304;-6.284;2023-04-15T08:27:57;101460.69;;;10.58;63.99
42633;BME280;28261;53.304;-6.284;2023-04-15T08:30:03;101464.66;;;10.49;64.20
42633;BME280;28261;53.304;-6.284;2023-04-15T08:32:08;101471.16;;;10.44;64.30
42633;BME280;28261;53.304;-6.284;2023-04-15T08:34:12;101463.31;;;10.42;64.57
42633;BME280;28261;53.304;-6.284;2023-04-15T08:36:18;101464.00;;;10.46;64.84
42633;BME280;28261;53.304;-6.284;2023-04-15T08:38:22;101460.25;;;10.50;63.98
42633;BME280;28261;53.304;-6.284;2023-04-15T08:40:34;101469.84;;;10.53;64.18
42633;BME280;28261;53.304;-6.284;2023-04-15T08:42:44;101477.84;;;10.51;64.25
42633;BME280;28261;53.304;-6.284;2023-04-15T08:44:51;101483.00;;;10.54;64.52
42633;BME280;28261;53.304;-6.284;2023-04-15T08:46:56;101477.00;;;10.66;64.29
42633;BME280;28261;53.304;-6.284;2023-04-15T08:49:03;101480.75;;;10.78;63.64
42633;BME280;28261;53.304;-6.284;2023-04-15T08:51:07;101484.72;;;10.87;63.38
42633;BME280;28261;53.304;-6.284;2023-04-15T08:53:13;101489.00;;;10.90;63.49
42633;BME280;28261;53.304;-6.284;2023-04-15T08:55:17;101493.00;;;10.97;63.36
42633;BME280;28261;53.304;-6.284;2023-04-15T08:57:23;101489.06;;;11.04;63.35
42633;BME280;28261;53.304;-6.284;2023-04-15T08:59:29;101487.41;;;11.17;63.08
42633;BME280;28261;53.304;-6.284;2023-04-15T09:01:33;101493.31;;;11.23;62.69
42633;BME280;28261;53.304;-6.284;2023-04-15T09:03:38;101497.53;;;11.11;62.80
42633;BME280;28261;53.304;-6.284;2023-04-15T09:05:42;101500.03;;;10.98;63.85
42633;BME280;28261;53.304;-6.284;2023-04-15T09:07:46;101505.25;;;10.99;64.01
42633;BME280;28261;53.304;-6.284;2023-04-15T09:09:51;101498.22;;;11.14;63.79
42633;BME280;28261;53.304;-6.284;2023-04-15T09:11:55;101503.84;;;11.08;63.07
42633;BME280;28261;53.304;-6.284;2023-04-15T09:13:58;101501.97;;;11.10;63.78
42633;BME280;28261;53.304;-6.284;2023-04-15T09:16:05;101505.28;;;11.30;62.98
42633;BME280;28261;53.304;-6.284;2023-04-15T09:18:11;101507.75;;;11.33;62.35
42633;BME280;28261;53.304;-6.284;2023-04-15T09:20:16;101504.97;;;11.50;62.54
42633;BME280;28261;53.304;-6.284;2023-04-15T09:22:20;101505.13;;;11.63;61.76
42633;BME280;28261;53.304;-6.284;2023-04-15T09:24:25;101504.91;;;11.82;61.34
42633;BME280;28261;53.304;-6.284;2023-04-15T09:26:31;101513.41;;;11.88;59.95
42633;BME280;28261;53.304;-6.284;2023-04-15T09:28:41;101514.88;;;11.93;60.70
42633;BME280;28261;53.304;-6.284;2023-04-15T09:30:45;101514.81;;;12.09;59.98
42633;BME280;28261;53.304;-6.284;2023-04-15T09:32:52;101511.41;;;12.22;59.66
42633;BME280;28261;53.304;-6.284;2023-04-15T09:34:56;101512.38;;;12.35;59.02
42633;BME280;28261;53.304;-6.284;2023-04-15T09:37:00;101514.16;;;12.49;58.71
42633;BME280;28261;53.304;-6.284;2023-04-15T09:39:05;101513.97;;;12.52;58.60
42633;BME280;28261;53.304;-6.284;2023-04-15T09:41:16;101510.47;;;12.37;58.69
42633;BME280;28261;53.304;-6.284;2023-04-15T09:43:22;101508.28;;;12.29;59.09
42633;BME280;28261;53.304;-6.284;2023-04-15T09:45:27;101512.75;;;12.43;58.02
42633;BME280;28261;53.304;-6.284;2023-04-15T09:47:31;101511.03;;;12.57;57.68
42633;BME280;28261;53.304;-6.284;2023-04-15T09:49:35;101507.22;;;12.61;57.14
42633;BME280;28261;53.304;-6.284;2023-04-15T09:51:38;101516.38;;;12.28;57.24
42633;BME280;28261;53.304;-6.284;2023-04-15T09:53:53;101514.16;;;12.20;57.55
42633;BME280;28261;53.304;-6.284;2023-04-15T09:55:59;101513.41;;;12.47;56.94
42633;BME280;28261;53.304;-6.284;2023-04-15T09:58:07;101512.75;;;12.43;56.68
42633;BME280;28261;53.304;-6.284;2023-04-15T10:00:14;101518.72;;;12.32;56.54
42633;BME280;28261;53.304;-6.284;2023-04-15T10:02:18;101512.47;;;12.33;56.76
42633;BME280;28261;53.304;-6.284;2023-04-15T10:04:22;101503.91;;;12.57;56.13
42633;BME280;28261;53.304;-6.284;2023-04-15T10:06:29;101503.69;;;12.75;55.31
42633;BME280;28261;53.304;-6.284;2023-04-15T10:08:33;101508.47;;;12.55;55.66
42633;BME280;28261;53.304;-6.284;2023-04-15T10:10:37;101502.00;;;12.45;56.09
42633;BME280;28261;53.304;-6.284;2023-04-15T10:12:41;101512.25;;;12.65;55.42
42633;BME280;28261;53.304;-6.284;2023-04-15T10:14:52;101503.31;;;12.81;55.31
42633;BME280;28261;53.304;-6.284;2023-04-15T10:17:01;101513.00;;;13.09;54.64
42633;BME280;28261;53.304;-6.284;2023-04-15T10:19:07;101513.28;;;13.19;53.66
42633;BME280;28261;53.304;-6.284;2023-04-15T10:21:12;101512.50;;;13.17;53.17
42633;BME280;28261;53.304;-6.284;2023-04-15T10:23:21;101500.06;;;12.76;54.27
42633;BME280;28261;53.304;-6.284;2023-04-15T10:25:26;101510.09;;;12.43;54.12
42633;BME280;28261;53.304;-6.284;2023-04-15T10:27:30;101513.97;;;12.23;55.02
42633;BME280;28261;53.304;-6.284;2023-04-15T10:29:35;101510.28;;;12.40;54.57
42633;BME280;28261;53.304;-6.284;2023-04-15T10:31:39;101513.50;;;12.60;54.51
42633;BME280;28261;53.304;-6.284;2023-04-15T10:33:44;101513.84;;;12.68;54.04
42633;BME280;28261;53.304;-6.284;2023-04-15T10:35:50;101520.41;;;12.77;54.71
42633;BME280;28261;53.304;-6.284;2023-04-15T10:37:55;101516.44;;;13.11;54.00
42633;BME280;28261;53.304;-6.284;2023-04-15T10:39:58;101512.03;;;13.25;53.93
42633;BME280;28261;53.304;-6.284;2023-04-15T10:42:06;101518.19;;;13.25;54.37
42633;BME280;28261;53.304;-6.284;2023-04-15T10:44:09;101515.72;;;12.95;54.69
42633;BME280;28261;53.304;-6.284;2023-04-15T10:46:17;101520.13;;;12.67;54.92